Mutunopolis, Brazil
Current Conditions -  °F | °C
As of 7:00 PM on Thursday 23 Oct 2014 (Local Time) from SBBR Reporting Station
Broken Clouds Broken Clouds  
Wind Chill: 79°   Ceiling: 10000
Heat Index: 80°   Visibility: 6mi
Dew Point: 61°   Wind: 3mph
Humidity: 54%   Direction: 30°NNE
Pressure: 30.06"   Gusts: NA
Location:  13.73°S, 49.27°W
Report Text: SBBR 232100Z 03003KT 9999 FEW030 FEW040TCU BKN100 26/16 Q1018
Loading
Personal Weather Stations






























Interactive Weather Map
Tropical Storm Tracking
New forecast layout! Learn more

10-Day Weather Forecast

Advertisements
Track Severe Weather on mobile